createdAt,value
2022-08-14T00:00:11.000Z,47.61
2022-08-14T00:01:04.000Z,47.53
2022-08-14T00:02:04.000Z,47.01
2022-08-14T00:03:03.000Z,46.92
2022-08-14T00:04:03.000Z,46.95
2022-08-14T00:05:06.000Z,47.42
2022-08-14T00:06:04.000Z,47.19
2022-08-14T00:07:04.000Z,47.34
2022-08-14T00:08:03.000Z,47.85
2022-08-14T00:09:03.000Z,48.59
2022-08-14T00:10:06.000Z,48.73
2022-08-14T00:10:06.000Z,48.73
2022-08-14T00:11:03.000Z,48.42
2022-08-14T00:12:04.000Z,48.58
2022-08-14T00:13:04.000Z,48.50
2022-08-14T00:14:03.000Z,48.42
2022-08-14T00:15:12.000Z,48.72
2022-08-14T00:16:03.000Z,48.76
2022-08-14T00:17:03.000Z,48.84
2022-08-14T00:18:05.000Z,49.00
2022-08-14T00:19:03.000Z,49.02
2022-08-14T00:20:06.000Z,49.21
2022-08-14T00:21:04.000Z,49.29
2022-08-14T00:22:03.000Z,49.42
2022-08-14T00:23:05.000Z,49.33
2022-08-14T00:24:03.000Z,49.29
2022-08-14T00:25:05.000Z,49.59
2022-08-14T00:26:03.000Z,49.67
2022-08-14T00:27:03.000Z,49.58
2022-08-14T00:28:07.000Z,49.82
2022-08-14T00:29:03.000Z,50.06
2022-08-14T00:30:06.000Z,50.36
2022-08-14T00:31:04.000Z,50.26
2022-08-14T00:32:04.000Z,50.10
2022-08-14T00:32:04.000Z,50.10
2022-08-14T00:33:03.000Z,50.13
2022-08-14T00:34:03.000Z,50.50
2022-08-14T00:35:06.000Z,50.35
2022-08-14T00:36:04.000Z,50.52
2022-08-14T00:37:03.000Z,50.41
2022-08-14T00:38:03.000Z,50.64
2022-08-14T00:39:04.000Z,50.55
2022-08-14T00:40:07.000Z,50.14
2022-08-14T00:41:06.000Z,50.72
2022-08-14T00:42:04.000Z,50.48
2022-08-14T00:43:04.000Z,50.53
2022-08-14T00:44:03.000Z,51.33
2022-08-14T00:45:05.000Z,50.42
2022-08-14T00:46:05.000Z,50.60
2022-08-14T00:47:06.000Z,51.29
2022-08-14T00:48:03.000Z,51.77
2022-08-14T00:49:04.000Z,51.13
2022-08-14T00:50:06.000Z,51.35
2022-08-14T00:51:06.000Z,51.34
2022-08-14T00:52:04.000Z,51.38
2022-08-14T00:53:04.000Z,51.44
2022-08-14T00:54:04.000Z,51.75
2022-08-14T00:55:06.000Z,51.14
2022-08-14T00:56:05.000Z,51.85
2022-08-14T00:57:04.000Z,51.86
2022-08-14T00:58:08.000Z,51.46
2022-08-14T00:59:03.000Z,51.48
2022-08-14T01:00:08.000Z,51.53
2022-08-14T01:01:08.000Z,51.37
2022-08-14T01:02:04.000Z,51.73
2022-08-14T01:03:05.000Z,51.74
2022-08-14T01:04:03.000Z,51.99
2022-08-14T01:05:06.000Z,51.70
2022-08-14T01:06:05.000Z,52.03
2022-08-14T01:07:05.000Z,52.49
2022-08-14T01:08:04.000Z,52.18
2022-08-14T01:09:03.000Z,52.23
2022-08-14T01:10:04.000Z,52.52
2022-08-14T01:11:04.000Z,52.28
2022-08-14T01:12:04.000Z,52.62
2022-08-14T01:13:04.000Z,52.53
2022-08-14T01:14:03.000Z,52.32
2022-08-14T01:15:04.000Z,52.83
2022-08-14T01:16:06.000Z,53.10
2022-08-14T01:17:03.000Z,52.88
2022-08-14T01:18:10.000Z,53.08
2022-08-14T01:19:09.000Z,53.24
2022-08-14T01:20:10.000Z,52.87
2022-08-14T01:21:06.000Z,53.32
2022-08-14T01:22:06.000Z,53.51
2022-08-14T01:23:05.000Z,53.25
2022-08-14T01:24:07.000Z,53.35
2022-08-14T01:25:05.000Z,52.79
2022-08-14T01:26:04.000Z,53.25
2022-08-14T01:27:04.000Z,53.54
2022-08-14T01:28:04.000Z,53.40
2022-08-14T01:29:04.000Z,53.54
2022-08-14T01:30:05.000Z,53.65
2022-08-14T01:31:13.000Z,53.62
2022-08-14T01:32:04.000Z,53.63
2022-08-14T01:33:03.000Z,53.78
2022-08-14T01:34:05.000Z,53.63
2022-08-14T01:34:05.000Z,53.63
2022-08-14T01:34:05.000Z,53.63
2022-08-14T01:35:33.000Z,53.58
2022-08-14T01:36:07.000Z,53.57
2022-08-14T01:37:04.000Z,53.77
2022-08-14T01:38:04.000Z,53.32
2022-08-14T01:39:13.000Z,53.96
2022-08-14T01:40:04.000Z,53.85
2022-08-14T01:41:08.000Z,54.23
2022-08-14T01:42:04.000Z,53.74
2022-08-14T01:43:10.000Z,54.34
2022-08-14T01:44:08.000Z,54.20
2022-08-14T01:45:11.000Z,53.74
2022-08-14T01:46:05.000Z,53.63
2022-08-14T01:47:09.000Z,54.39
2022-08-14T01:48:03.000Z,54.09
2022-08-14T01:49:07.000Z,54.18
2022-08-14T01:50:07.000Z,54.38
2022-08-14T01:51:05.000Z,54.59
2022-08-14T01:52:03.000Z,54.43
2022-08-14T01:53:03.000Z,54.23
2022-08-14T01:54:16.000Z,54.24
2022-08-14T01:55:06.000Z,54.20
2022-08-14T01:56:03.000Z,54.51
2022-08-14T01:57:09.000Z,54.33
2022-08-14T01:58:03.000Z,54.58
2022-08-14T01:59:12.000Z,54.51
2022-08-14T02:00:04.000Z,54.29
2022-08-14T02:01:04.000Z,54.00
2022-08-14T02:02:07.000Z,53.83
2022-08-14T02:03:04.000Z,54.15
2022-08-14T02:04:03.000Z,53.86
2022-08-14T02:05:03.000Z,54.04
2022-08-14T02:06:03.000Z,54.48
2022-08-14T02:07:05.000Z,54.45
2022-08-14T02:08:05.000Z,54.40
2022-08-14T02:09:04.000Z,53.78
2022-08-14T02:10:06.000Z,54.15
2022-08-14T02:11:09.000Z,54.12
2022-08-14T02:12:04.000Z,54.12
2022-08-14T02:13:08.000Z,54.55
2022-08-14T02:14:06.000Z,54.42
2022-08-14T02:15:04.000Z,54.00
2022-08-14T02:16:04.000Z,54.11
2022-08-14T02:17:07.000Z,54.51
2022-08-14T02:18:03.000Z,54.03
2022-08-14T02:19:07.000Z,54.55
2022-08-14T02:20:05.000Z,54.51
2022-08-14T02:21:04.000Z,54.37
2022-08-14T02:22:05.000Z,54.80
2022-08-14T02:23:04.000Z,54.69
2022-08-14T02:24:05.000Z,55.00
2022-08-14T02:25:04.000Z,54.59
2022-08-14T02:26:14.000Z,54.51
2022-08-14T02:27:04.000Z,54.46
2022-08-14T02:27:04.000Z,54.46
2022-08-14T02:27:04.000Z,54.46
2022-08-14T02:28:33.000Z,55.00
2022-08-14T02:29:11.000Z,55.29
2022-08-14T02:30:04.000Z,55.21
2022-08-14T02:31:07.000Z,54.73
2022-08-14T02:32:04.000Z,55.10
2022-08-14T02:33:05.000Z,55.16
2022-08-14T02:34:13.000Z,55.09
2022-08-14T02:35:09.000Z,55.17
2022-08-14T02:36:04.000Z,55.40
2022-08-14T02:36:04.000Z,55.40
2022-08-14T02:37:10.000Z,55.29
2022-08-14T02:38:03.000Z,55.15
2022-08-14T02:39:05.000Z,55.21
2022-08-14T02:40:04.000Z,55.65
2022-08-14T02:41:07.000Z,55.88
2022-08-14T02:42:07.000Z,55.77
2022-08-14T02:43:05.000Z,55.61
2022-08-14T02:44:06.000Z,55.54
2022-08-14T02:45:04.000Z,55.84
2022-08-14T02:46:08.000Z,55.86
2022-08-14T02:47:04.000Z,56.31
2022-08-14T02:48:05.000Z,56.19
2022-08-14T02:49:05.000Z,55.98
2022-08-14T02:50:04.000Z,55.98
2022-08-14T02:51:07.000Z,56.09
2022-08-14T02:52:05.000Z,56.19
2022-08-14T02:52:05.000Z,56.19
2022-08-14T02:53:04.000Z,56.57
2022-08-14T02:54:06.000Z,56.50
2022-08-14T02:55:05.000Z,56.66
2022-08-14T02:56:05.000Z,56.72
2022-08-14T02:57:05.000Z,56.76
2022-08-14T02:58:05.000Z,56.61
2022-08-14T02:59:06.000Z,56.19
2022-08-14T03:00:04.000Z,56.94
2022-08-14T03:01:06.000Z,56.80
2022-08-14T03:02:04.000Z,57.00
2022-08-14T03:03:04.000Z,56.68
2022-08-14T03:04:05.000Z,56.99
2022-08-14T03:05:04.000Z,56.74
2022-08-14T03:06:06.000Z,57.21
2022-08-14T03:07:04.000Z,57.11
2022-08-14T03:08:10.000Z,57.17
2022-08-14T03:09:04.000Z,57.16
2022-08-14T03:10:06.000Z,57.07
2022-08-14T03:11:08.000Z,57.19
2022-08-14T03:12:05.000Z,57.31
2022-08-14T03:13:05.000Z,56.99
2022-08-14T03:14:04.000Z,57.56
2022-08-14T03:15:09.000Z,57.31
2022-08-14T03:16:06.000Z,57.38
2022-08-14T03:17:05.000Z,57.24
2022-08-14T03:18:09.000Z,57.42
2022-08-14T03:19:07.000Z,57.47
2022-08-14T03:20:05.000Z,57.56
2022-08-14T03:21:05.000Z,57.37
2022-08-14T03:22:03.000Z,56.97
2022-08-14T03:23:04.000Z,57.17
2022-08-14T03:24:08.000Z,57.08
2022-08-14T03:25:04.000Z,57.06
2022-08-14T03:26:07.000Z,57.25
2022-08-14T03:27:04.000Z,57.13
2022-08-14T03:28:08.000Z,57.22
2022-08-14T03:29:04.000Z,57.77
2022-08-14T03:30:04.000Z,57.32
2022-08-14T03:31:05.000Z,57.72
2022-08-14T03:32:04.000Z,58.57
2022-08-14T03:33:04.000Z,58.49
2022-08-14T03:34:03.000Z,58.16
2022-08-14T03:35:04.000Z,58.55
2022-08-14T03:36:09.000Z,59.31
2022-08-14T03:36:09.000Z,59.31
2022-08-14T03:36:09.000Z,59.31
2022-08-14T03:36:09.000Z,59.31
2022-08-14T03:36:09.000Z,59.31
2022-08-14T03:37:34.000Z,58.69
2022-08-14T03:37:34.000Z,58.69
2022-08-14T03:37:34.000Z,58.69
2022-08-14T03:38:42.000Z,59.05
2022-08-14T03:39:24.000Z,58.93
2022-08-14T03:40:05.000Z,58.31
2022-08-14T03:41:05.000Z,58.98
2022-08-14T03:42:03.000Z,59.07
2022-08-14T03:43:05.000Z,58.87
2022-08-14T03:44:04.000Z,58.32
2022-08-14T03:44:04.000Z,58.32
2022-08-14T03:45:36.000Z,58.71
2022-08-14T03:46:03.000Z,58.60
2022-08-14T03:47:03.000Z,57.92
2022-08-14T03:48:12.000Z,58.39
2022-08-14T03:49:04.000Z,57.39
2022-08-14T03:50:06.000Z,57.78
2022-08-14T03:51:06.000Z,57.78
2022-08-14T03:52:04.000Z,58.27
2022-08-14T03:53:03.000Z,57.92
2022-08-14T03:54:05.000Z,57.94
2022-08-14T03:55:07.000Z,58.18
2022-08-14T03:56:04.000Z,58.27
2022-08-14T03:57:03.000Z,58.30
2022-08-14T03:58:07.000Z,57.90
2022-08-14T03:59:06.000Z,57.58
2022-08-14T04:00:10.000Z,58.16
2022-08-14T04:01:03.000Z,58.57
2022-08-14T04:02:03.000Z,58.02
2022-08-14T04:03:07.000Z,58.88
2022-08-14T04:04:05.000Z,58.69
2022-08-14T04:05:08.000Z,58.31
2022-08-14T04:06:05.000Z,58.28
2022-08-14T04:07:03.000Z,57.99
2022-08-14T04:08:07.000Z,58.18
2022-08-14T04:09:05.000Z,58.48
2022-08-14T04:10:05.000Z,58.39
2022-08-14T04:11:06.000Z,58.69
2022-08-14T04:12:04.000Z,58.51
2022-08-14T04:13:04.000Z,58.35
2022-08-14T04:14:04.000Z,58.02
2022-08-14T04:15:05.000Z,57.72
2022-08-14T04:16:07.000Z,58.07
2022-08-14T04:17:03.000Z,57.46
2022-08-14T04:18:05.000Z,57.51
2022-08-14T04:19:03.000Z,57.80
2022-08-14T04:20:06.000Z,57.19
2022-08-14T04:21:04.000Z,57.12
2022-08-14T04:22:04.000Z,57.10
2022-08-14T04:23:05.000Z,57.21
2022-08-14T04:24:05.000Z,56.95
2022-08-14T04:25:04.000Z,56.94
2022-08-14T04:26:06.000Z,56.56
2022-08-14T04:27:08.000Z,56.50
2022-08-14T04:28:05.000Z,56.26
2022-08-14T04:29:03.000Z,56.51
2022-08-14T04:30:05.000Z,57.36
2022-08-14T04:31:03.000Z,56.83
2022-08-14T04:32:06.000Z,56.39
2022-08-14T04:32:06.000Z,56.39
2022-08-14T04:33:05.000Z,56.53
2022-08-14T04:34:04.000Z,56.64
2022-08-14T04:35:04.000Z,56.22
2022-08-14T04:36:04.000Z,56.51
2022-08-14T04:37:09.000Z,56.59
2022-08-14T04:38:10.000Z,57.26
2022-08-14T04:39:09.000Z,57.46
2022-08-14T04:40:10.000Z,57.65
2022-08-14T04:41:09.000Z,57.61
2022-08-14T04:42:09.000Z,57.81
2022-08-14T04:43:08.000Z,57.16
2022-08-14T04:44:04.000Z,57.39
2022-08-14T04:45:04.000Z,56.69
2022-08-14T04:46:09.000Z,57.34
2022-08-14T04:47:09.000Z,56.61
2022-08-14T04:48:13.000Z,57.04
2022-08-14T04:49:04.000Z,56.98
2022-08-14T04:50:04.000Z,56.99
2022-08-14T04:51:07.000Z,57.72
2022-08-14T04:52:03.000Z,57.83
2022-08-14T04:53:03.000Z,58.04
2022-08-14T04:54:03.000Z,58.84
2022-08-14T04:55:05.000Z,58.90
2022-08-14T04:56:03.000Z,59.38
2022-08-14T04:57:03.000Z,59.53
2022-08-14T04:58:04.000Z,59.22
2022-08-14T04:59:04.000Z,59.52
2022-08-14T05:00:05.000Z,60.34
2022-08-14T05:01:07.000Z,59.12
2022-08-14T05:02:03.000Z,58.85
2022-08-14T05:03:04.000Z,59.34
2022-08-14T05:04:03.000Z,59.22
2022-08-14T05:05:04.000Z,59.26
2022-08-14T05:06:08.000Z,58.84
2022-08-14T05:07:03.000Z,58.50
2022-08-14T05:08:09.000Z,59.16
2022-08-14T05:09:04.000Z,59.26
2022-08-14T05:10:04.000Z,59.52
2022-08-14T05:11:05.000Z,59.53
2022-08-14T05:12:03.000Z,59.85
2022-08-14T05:12:03.000Z,59.85
2022-08-14T05:13:17.000Z,59.94
2022-08-14T05:14:03.000Z,59.93
2022-08-14T05:15:04.000Z,59.40
2022-08-14T05:16:04.000Z,59.75
2022-08-14T05:17:03.000Z,59.75
2022-08-14T05:18:08.000Z,59.35
2022-08-14T05:18:08.000Z,59.35
2022-08-14T05:19:27.000Z,59.30
2022-08-14T05:20:04.000Z,59.47
2022-08-14T05:20:04.000Z,59.47
2022-08-14T05:20:04.000Z,59.47
2022-08-14T05:21:33.000Z,59.28
2022-08-14T05:22:03.000Z,59.16
2022-08-14T05:23:03.000Z,58.98
2022-08-14T05:24:04.000Z,58.92
2022-08-14T05:25:04.000Z,58.15
2022-08-14T05:26:12.000Z,57.98
2022-08-14T05:27:03.000Z,57.70
2022-08-14T05:28:09.000Z,57.35
2022-08-14T05:29:08.000Z,57.61
2022-08-14T05:30:05.000Z,57.39
2022-08-14T05:31:06.000Z,57.01
2022-08-14T05:32:06.000Z,57.78
2022-08-14T05:33:04.000Z,57.51
2022-08-14T05:34:03.000Z,57.53
2022-08-14T05:35:04.000Z,57.25
2022-08-14T05:36:06.000Z,57.18
2022-08-14T05:37:03.000Z,57.09
2022-08-14T05:38:08.000Z,57.24
2022-08-14T05:39:03.000Z,57.33
2022-08-14T05:40:04.000Z,57.11
2022-08-14T05:41:12.000Z,57.22
2022-08-14T05:42:04.000Z,57.10
2022-08-14T05:43:03.000Z,57.44
2022-08-14T05:44:03.000Z,57.66
2022-08-14T05:45:05.000Z,59.14
2022-08-14T05:46:05.000Z,59.19
2022-08-14T05:47:04.000Z,58.66
2022-08-14T05:48:04.000Z,58.50
2022-08-14T05:49:04.000Z,58.40
2022-08-14T05:50:05.000Z,58.66
2022-08-14T05:51:04.000Z,58.79
2022-08-14T05:52:05.000Z,58.18
2022-08-14T05:53:04.000Z,58.10
2022-08-14T05:54:04.000Z,57.93
2022-08-14T05:55:06.000Z,58.19
2022-08-14T05:56:04.000Z,58.05
2022-08-14T05:57:04.000Z,58.15
2022-08-14T05:58:06.000Z,58.13
2022-08-14T05:59:04.000Z,58.33
2022-08-14T06:00:04.000Z,57.94
2022-08-14T06:01:04.000Z,57.65
2022-08-14T06:02:05.000Z,58.18
2022-08-14T06:03:07.000Z,58.31
2022-08-14T06:04:04.000Z,57.84
2022-08-14T06:05:04.000Z,58.14
2022-08-14T06:06:04.000Z,57.98
2022-08-14T06:07:04.000Z,57.99
2022-08-14T06:08:04.000Z,58.07
2022-08-14T06:09:04.000Z,57.79
2022-08-14T06:10:06.000Z,57.98
2022-08-14T06:11:06.000Z,57.87
2022-08-14T06:12:04.000Z,57.73
2022-08-14T06:13:04.000Z,57.91
2022-08-14T06:14:04.000Z,58.13
2022-08-14T06:15:07.000Z,57.96
2022-08-14T06:16:04.000Z,57.89
2022-08-14T06:17:05.000Z,58.50
2022-08-14T06:18:04.000Z,57.95
2022-08-14T06:19:04.000Z,58.07
2022-08-14T06:20:04.000Z,58.13
2022-08-14T06:21:04.000Z,58.18
2022-08-14T06:22:03.000Z,58.17
2022-08-14T06:23:03.000Z,58.12
2022-08-14T06:24:03.000Z,58.13
2022-08-14T06:25:04.000Z,58.31
2022-08-14T06:26:03.000Z,57.95
2022-08-14T06:27:03.000Z,58.37
2022-08-14T06:28:03.000Z,57.98
2022-08-14T06:29:03.000Z,57.71
2022-08-14T06:30:06.000Z,57.58
2022-08-14T06:31:03.000Z,57.93
2022-08-14T06:32:03.000Z,58.28
2022-08-14T06:33:03.000Z,58.35
2022-08-14T06:34:03.000Z,57.83
2022-08-14T06:34:03.000Z,57.83
2022-08-14T06:35:14.000Z,57.68
2022-08-14T06:36:04.000Z,58.02
2022-08-14T06:37:03.000Z,58.46
2022-08-14T06:38:03.000Z,57.65
2022-08-14T06:39:03.000Z,57.52
2022-08-14T06:40:04.000Z,57.40
2022-08-14T06:41:03.000Z,57.63
2022-08-14T06:42:03.000Z,57.98
2022-08-14T06:43:06.000Z,57.66
2022-08-14T06:44:03.000Z,57.34
2022-08-14T06:45:04.000Z,57.19
2022-08-14T06:46:04.000Z,58.36
2022-08-14T06:47:03.000Z,58.15
2022-08-14T06:48:11.000Z,57.35
2022-08-14T06:49:03.000Z,57.46
2022-08-14T06:50:05.000Z,57.10
2022-08-14T06:51:03.000Z,57.58
2022-08-14T06:52:03.000Z,57.47
2022-08-14T06:53:04.000Z,57.24
2022-08-14T06:54:03.000Z,57.38
2022-08-14T06:55:07.000Z,56.90
2022-08-14T06:56:04.000Z,56.91
2022-08-14T06:57:04.000Z,56.34
2022-08-14T06:58:03.000Z,56.43
2022-08-14T06:59:04.000Z,55.93
2022-08-14T07:00:09.000Z,55.76
2022-08-14T07:01:09.000Z,55.73
2022-08-14T07:02:09.000Z,55.68
2022-08-14T07:03:08.000Z,55.43
2022-08-14T07:04:09.000Z,55.62
2022-08-14T07:05:09.000Z,55.65
2022-08-14T07:06:04.000Z,55.46
2022-08-14T07:07:03.000Z,54.86
2022-08-14T07:08:04.000Z,54.94
2022-08-14T07:09:03.000Z,54.94
2022-08-14T07:10:05.000Z,55.21
2022-08-14T07:11:04.000Z,54.90
2022-08-14T07:12:04.000Z,54.87
2022-08-14T07:13:04.000Z,54.51
2022-08-14T07:14:03.000Z,54.74
2022-08-14T07:15:05.000Z,54.42
2022-08-14T07:16:05.000Z,54.26
2022-08-14T07:17:04.000Z,53.98
2022-08-14T07:18:04.000Z,54.06
2022-08-14T07:19:05.000Z,53.74
2022-08-14T07:20:04.000Z,53.75
2022-08-14T07:21:05.000Z,53.74
2022-08-14T07:22:03.000Z,53.69
2022-08-14T07:23:07.000Z,53.66
2022-08-14T07:24:03.000Z,53.64
2022-08-14T07:25:04.000Z,53.24
2022-08-14T07:26:04.000Z,53.03
2022-08-14T07:27:03.000Z,53.42
2022-08-14T07:28:09.000Z,53.64
2022-08-14T07:29:03.000Z,53.48
2022-08-14T07:30:04.000Z,53.29
2022-08-14T07:31:07.000Z,53.25
2022-08-14T07:32:03.000Z,52.80
2022-08-14T07:33:04.000Z,52.80
2022-08-14T07:34:03.000Z,52.56
2022-08-14T07:35:03.000Z,52.65
2022-08-14T07:36:06.000Z,52.37
2022-08-14T07:37:04.000Z,52.46
2022-08-14T07:38:04.000Z,52.64
2022-08-14T07:39:03.000Z,52.27
2022-08-14T07:40:04.000Z,52.37
2022-08-14T07:41:04.000Z,51.97
2022-08-14T07:42:03.000Z,51.88
2022-08-14T07:43:03.000Z,51.80
2022-08-14T07:44:03.000Z,52.09
2022-08-14T07:45:03.000Z,52.30
2022-08-14T07:46:04.000Z,52.21
2022-08-14T07:47:03.000Z,52.07
2022-08-14T07:48:04.000Z,51.87
2022-08-14T07:49:03.000Z,51.67
2022-08-14T07:50:11.000Z,51.28
2022-08-14T07:51:03.000Z,51.39
2022-08-14T07:52:03.000Z,51.38
2022-08-14T07:53:05.000Z,51.51
2022-08-14T07:54:04.000Z,51.56
2022-08-14T07:55:04.000Z,51.13
2022-08-14T07:56:03.000Z,50.97
2022-08-14T07:57:03.000Z,50.77
2022-08-14T07:58:03.000Z,51.29
2022-08-14T07:59:05.000Z,51.27
2022-08-14T08:00:06.000Z,50.53
2022-08-14T08:01:05.000Z,50.70
2022-08-14T08:02:04.000Z,50.85
2022-08-14T08:03:06.000Z,50.94
2022-08-14T08:04:05.000Z,51.48
2022-08-14T08:05:05.000Z,51.74
2022-08-14T08:06:04.000Z,51.48
2022-08-14T08:07:03.000Z,51.07
2022-08-14T08:08:06.000Z,51.07
2022-08-14T08:09:07.000Z,51.27
2022-08-14T08:10:25.000Z,51.45
2022-08-14T08:11:05.000Z,51.49
2022-08-14T08:12:07.000Z,51.42
2022-08-14T08:13:18.000Z,50.77
2022-08-14T08:14:06.000Z,51.02
2022-08-14T08:15:04.000Z,50.80
2022-08-14T08:16:05.000Z,50.48
2022-08-14T08:17:05.000Z,50.76
2022-08-14T08:18:05.000Z,49.91
2022-08-14T08:19:05.000Z,49.78
2022-08-14T08:20:06.000Z,49.47
2022-08-14T08:21:03.000Z,48.69
2022-08-14T08:22:04.000Z,48.93
2022-08-14T08:23:05.000Z,48.91
2022-08-14T08:24:04.000Z,48.61
2022-08-14T08:25:06.000Z,48.50
2022-08-14T08:26:03.000Z,48.57
2022-08-14T08:27:14.000Z,48.40
2022-08-14T08:28:20.000Z,48.11
2022-08-14T08:29:04.000Z,48.26
2022-08-14T08:30:08.000Z,48.32
2022-08-14T08:31:05.000Z,47.92
2022-08-14T08:32:03.000Z,48.01
2022-08-14T08:33:06.000Z,47.76
2022-08-14T08:34:04.000Z,47.88
2022-08-14T08:35:08.000Z,48.05
2022-08-14T08:36:07.000Z,48.18
2022-08-14T08:37:03.000Z,48.15
2022-08-14T08:38:09.000Z,47.82
2022-08-14T08:38:09.000Z,47.82
2022-08-14T08:39:22.000Z,47.59
2022-08-14T08:40:04.000Z,47.57
2022-08-14T08:41:04.000Z,47.21
2022-08-14T08:42:04.000Z,46.97
2022-08-14T08:43:07.000Z,46.25
2022-08-14T08:44:03.000Z,45.99
2022-08-14T08:45:05.000Z,45.74
2022-08-14T08:46:10.000Z,44.88
2022-08-14T08:47:04.000Z,45.01
2022-08-14T08:48:04.000Z,44.95
2022-08-14T08:49:04.000Z,44.63
2022-08-14T08:50:17.000Z,44.79
2022-08-14T08:51:04.000Z,44.82
2022-08-14T08:52:03.000Z,44.53
2022-08-14T08:53:08.000Z,44.48
2022-08-14T08:54:09.000Z,44.64
2022-08-14T08:55:04.000Z,44.89
2022-08-14T08:56:03.000Z,45.32
2022-08-14T08:57:09.000Z,45.24
2022-08-14T08:58:09.000Z,45.39
2022-08-14T08:59:20.000Z,45.33
2022-08-14T09:00:15.000Z,45.44
2022-08-14T09:01:03.000Z,44.99
2022-08-14T09:02:07.000Z,44.52
2022-08-14T09:03:08.000Z,44.43
2022-08-14T09:04:03.000Z,44.97
2022-08-14T09:05:04.000Z,44.67
2022-08-14T09:06:04.000Z,44.65
2022-08-14T09:06:04.000Z,44.65
2022-08-14T09:07:12.000Z,44.32
2022-08-14T09:08:13.000Z,43.49
2022-08-14T09:09:03.000Z,44.13
2022-08-14T09:10:04.000Z,44.17
2022-08-14T09:11:05.000Z,43.72
2022-08-14T09:12:06.000Z,43.34
2022-08-14T09:13:03.000Z,42.86
2022-08-14T09:14:03.000Z,42.92
2022-08-14T09:15:06.000Z,43.68
2022-08-14T09:16:04.000Z,43.23
2022-08-14T09:17:03.000Z,43.16
2022-08-14T09:18:04.000Z,43.01
2022-08-14T09:19:04.000Z,42.86
2022-08-14T09:20:04.000Z,42.40
2022-08-14T09:21:05.000Z,42.60
2022-08-14T09:22:04.000Z,41.44
2022-08-14T09:23:06.000Z,41.61
2022-08-14T09:24:05.000Z,40.80
2022-08-14T09:25:05.000Z,40.52
2022-08-14T09:26:03.000Z,40.62
2022-08-14T09:27:03.000Z,40.46
2022-08-14T09:28:04.000Z,40.44
2022-08-14T09:29:04.000Z,40.28
2022-08-14T09:30:07.000Z,40.75
2022-08-14T09:31:04.000Z,40.82
2022-08-14T09:32:06.000Z,41.26
2022-08-14T09:32:06.000Z,41.26
2022-08-14T09:33:30.000Z,41.20
2022-08-14T09:34:21.000Z,40.37
2022-08-14T09:35:14.000Z,40.60
2022-08-14T09:36:18.000Z,40.36
2022-08-14T09:37:26.000Z,39.83
2022-08-14T09:38:14.000Z,39.26
2022-08-14T09:39:14.000Z,39.40
2022-08-14T09:40:17.000Z,38.93
2022-08-14T09:41:13.000Z,38.85
2022-08-14T09:42:13.000Z,38.41
2022-08-14T09:43:14.000Z,38.29
2022-08-14T09:44:13.000Z,38.48
2022-08-14T09:45:12.000Z,38.41
2022-08-14T09:46:06.000Z,38.14
2022-08-14T09:47:04.000Z,38.60
2022-08-14T09:48:18.000Z,38.15
2022-08-14T09:49:07.000Z,38.50
2022-08-14T09:50:15.000Z,38.43
2022-08-14T09:51:06.000Z,38.14
2022-08-14T09:52:07.000Z,38.26
2022-08-14T09:53:05.000Z,38.14
2022-08-14T09:54:11.000Z,37.38
2022-08-14T09:55:15.000Z,37.23
2022-08-14T09:56:05.000Z,37.62
2022-08-14T09:57:06.000Z,37.42
2022-08-14T09:58:12.000Z,37.09
2022-08-14T09:59:09.000Z,36.43
2022-08-14T10:00:09.000Z,36.34
2022-08-14T10:01:10.000Z,36.84
2022-08-14T10:02:15.000Z,37.19
2022-08-14T10:03:03.000Z,36.45
2022-08-14T10:04:19.000Z,36.09
2022-08-14T10:05:09.000Z,35.57
2022-08-14T10:06:12.000Z,35.93
2022-08-14T10:07:04.000Z,35.80
2022-08-14T10:08:16.000Z,35.60
2022-08-14T10:09:04.000Z,35.41
2022-08-14T10:10:04.000Z,35.55
2022-08-14T10:11:12.000Z,34.65
2022-08-14T10:12:05.000Z,35.60
2022-08-14T10:13:06.000Z,35.24
2022-08-14T10:14:15.000Z,34.66
2022-08-14T10:15:22.000Z,34.63
2022-08-14T10:16:03.000Z,34.40
2022-08-14T10:17:04.000Z,34.06
2022-08-14T10:18:11.000Z,33.45
2022-08-14T10:19:13.000Z,34.52
2022-08-14T10:20:03.000Z,33.73
2022-08-14T10:21:08.000Z,33.82
2022-08-14T10:22:08.000Z,33.41
2022-08-14T10:22:08.000Z,33.41
2022-08-14T10:23:19.000Z,33.78
2022-08-14T10:24:22.000Z,33.21
2022-08-14T10:25:10.000Z,33.31
2022-08-14T10:26:06.000Z,34.29
2022-08-14T10:27:12.000Z,34.20
2022-08-14T10:28:03.000Z,33.31
2022-08-14T10:29:05.000Z,33.15
2022-08-14T10:30:16.000Z,32.94
2022-08-14T10:31:15.000Z,33.04
2022-08-14T10:32:05.000Z,32.40
2022-08-14T10:33:03.000Z,32.81
2022-08-14T10:34:09.000Z,33.19
2022-08-14T10:35:08.000Z,32.81
2022-08-14T10:36:04.000Z,32.18
2022-08-14T10:37:11.000Z,32.52
2022-08-14T10:38:03.000Z,31.75
2022-08-14T10:39:06.000Z,32.41
2022-08-14T10:40:04.000Z,32.32
2022-08-14T10:41:12.000Z,31.90
2022-08-14T10:42:12.000Z,31.77
2022-08-14T10:43:14.000Z,32.10
2022-08-14T10:44:13.000Z,32.18
2022-08-14T10:45:16.000Z,32.00
2022-08-14T10:46:14.000Z,32.16
2022-08-14T10:46:14.000Z,32.16
2022-08-14T10:46:14.000Z,32.16
2022-08-14T10:47:34.000Z,32.17
2022-08-14T10:48:14.000Z,31.92
2022-08-14T10:49:03.000Z,32.01
2022-08-14T10:50:05.000Z,32.29
2022-08-14T10:51:03.000Z,32.43
2022-08-14T10:52:08.000Z,32.14
2022-08-14T10:53:04.000Z,31.53
2022-08-14T10:54:07.000Z,31.63
2022-08-14T10:55:09.000Z,31.60
2022-08-14T10:56:10.000Z,31.31
2022-08-14T10:57:10.000Z,30.84
2022-08-14T10:58:07.000Z,31.44
2022-08-14T10:59:05.000Z,30.59
2022-08-14T11:00:13.000Z,30.86
2022-08-14T11:01:06.000Z,30.75
2022-08-14T11:02:29.000Z,31.47
2022-08-14T11:03:09.000Z,30.84
2022-08-14T11:04:04.000Z,31.55
2022-08-14T11:05:10.000Z,31.75
2022-08-14T11:06:13.000Z,30.99
2022-08-14T11:07:12.000Z,31.52
2022-08-14T11:08:03.000Z,31.14
2022-08-14T11:09:11.000Z,31.71
2022-08-14T11:10:11.000Z,31.48
2022-08-14T11:11:04.000Z,31.54
2022-08-14T11:12:04.000Z,31.75
2022-08-14T11:13:04.000Z,30.67
2022-08-14T11:14:06.000Z,31.16
2022-08-14T11:15:04.000Z,30.66
2022-08-14T11:16:03.000Z,31.40
2022-08-14T11:17:04.000Z,31.57
2022-08-14T11:18:04.000Z,31.43
2022-08-14T11:19:06.000Z,31.22
2022-08-14T11:20:06.000Z,30.89
2022-08-14T11:21:05.000Z,31.36
2022-08-14T11:22:04.000Z,31.19
2022-08-14T11:23:08.000Z,30.86
2022-08-14T11:24:06.000Z,30.80
2022-08-14T11:24:06.000Z,30.80
2022-08-14T11:25:05.000Z,31.35
2022-08-14T11:26:06.000Z,31.38
2022-08-14T11:27:04.000Z,31.55
2022-08-14T11:28:05.000Z,31.67
2022-08-14T11:29:05.000Z,31.15
2022-08-14T11:30:11.000Z,30.77
2022-08-14T11:31:07.000Z,30.50
2022-08-14T11:32:06.000Z,30.79
2022-08-14T11:33:05.000Z,31.45
2022-08-14T11:34:04.000Z,31.31
2022-08-14T11:35:04.000Z,30.88
2022-08-14T11:36:06.000Z,31.18
2022-08-14T11:37:08.000Z,30.89
2022-08-14T11:38:06.000Z,30.60
2022-08-14T11:39:04.000Z,30.93
2022-08-14T11:40:14.000Z,30.19
2022-08-14T11:41:06.000Z,30.30
2022-08-14T11:42:04.000Z,30.96
2022-08-14T11:42:04.000Z,30.96
2022-08-14T11:43:07.000Z,30.83
2022-08-14T11:44:03.000Z,30.97
2022-08-14T11:45:04.000Z,30.91
2022-08-14T11:46:04.000Z,30.45
2022-08-14T11:47:04.000Z,30.22
2022-08-14T11:48:13.000Z,30.15
2022-08-14T11:48:13.000Z,30.15
2022-08-14T11:49:05.000Z,30.61
2022-08-14T11:50:26.000Z,30.94
2022-08-14T11:51:12.000Z,30.70
2022-08-14T11:52:03.000Z,30.80
2022-08-14T11:53:06.000Z,31.03
2022-08-14T11:54:05.000Z,30.43
2022-08-14T11:55:08.000Z,30.31
2022-08-14T11:56:05.000Z,30.35
2022-08-14T11:57:11.000Z,30.74
2022-08-14T11:58:10.000Z,30.37
2022-08-14T11:59:06.000Z,30.07
2022-08-14T12:00:07.000Z,30.09
2022-08-14T12:01:07.000Z,29.99
2022-08-14T12:02:09.000Z,30.25
2022-08-14T12:02:09.000Z,30.25
2022-08-14T12:03:04.000Z,29.92
2022-08-14T12:04:11.000Z,29.70
2022-08-14T12:05:04.000Z,29.58
2022-08-14T12:06:09.000Z,29.75
2022-08-14T12:07:05.000Z,29.58
2022-08-14T12:08:08.000Z,29.89
2022-08-14T12:09:03.000Z,30.08
2022-08-14T12:10:04.000Z,30.20
2022-08-14T12:11:06.000Z,30.05
2022-08-14T12:12:13.000Z,29.45
2022-08-14T12:13:15.000Z,29.54
2022-08-14T12:14:07.000Z,29.71
2022-08-14T12:15:04.000Z,29.97
2022-08-14T12:16:10.000Z,29.53
2022-08-14T12:17:07.000Z,30.00
2022-08-14T12:18:03.000Z,29.38
2022-08-14T12:19:04.000Z,29.38
2022-08-14T12:20:06.000Z,29.51
2022-08-14T12:21:09.000Z,29.37